createdAt,value
2022-11-22T00:00:44.614Z,21.00
2022-11-22T00:01:48.190Z,20.90
2022-11-22T00:02:51.362Z,21.00
2022-11-22T00:03:56.851Z,21.00
2022-11-22T00:04:59.255Z,20.90
2022-11-22T00:06:07.540Z,21.00
2022-11-22T00:07:12.192Z,21.00
2022-11-22T00:08:17.471Z,20.90
2022-11-22T00:09:19.950Z,21.00
2022-11-22T00:10:22.477Z,21.00
2022-11-22T00:11:26.118Z,21.00
2022-11-22T00:12:28.610Z,21.00
2022-11-22T00:13:31.085Z,20.90
2022-11-22T00:14:37.708Z,21.10
2022-11-22T00:15:46.392Z,21.00
2022-11-22T00:16:49.000Z,20.90
2022-11-22T00:17:54.302Z,20.90
2022-11-22T00:18:56.748Z,21.00
2022-11-22T00:19:59.155Z,20.90
2022-11-22T00:21:13.458Z,20.90
2022-11-22T00:22:16.382Z,20.90
2022-11-22T00:23:22.260Z,20.90
2022-11-22T00:24:24.697Z,21.00
2022-11-22T00:25:27.401Z,21.00
2022-11-22T00:26:29.966Z,21.00
2022-11-22T00:27:33.178Z,20.90
2022-11-22T00:28:35.680Z,21.00
2022-11-22T00:29:38.657Z,20.90
2022-11-22T00:30:41.140Z,20.90
2022-11-22T00:31:43.614Z,21.10
2022-11-22T00:32:46.102Z,20.90
2022-11-22T00:33:51.227Z,20.90
2022-11-22T00:34:55.944Z,21.00
2022-11-22T00:35:58.371Z,21.00
2022-11-22T00:37:03.259Z,21.00
2022-11-22T00:38:05.727Z,21.00
2022-11-22T00:39:08.175Z,21.00
2022-11-22T00:40:11.036Z,21.00
2022-11-22T00:41:14.687Z,21.00
2022-11-22T00:42:18.434Z,21.00
2022-11-22T00:43:23.284Z,20.90
2022-11-22T00:44:25.712Z,21.00
2022-11-22T00:45:28.230Z,21.00
2022-11-22T00:46:30.664Z,21.00
2022-11-22T00:47:33.165Z,21.00
2022-11-22T00:48:35.626Z,20.90
2022-11-22T00:49:38.036Z,20.90
2022-11-22T00:50:40.500Z,21.00
2022-11-22T00:51:43.016Z,21.00
2022-11-22T00:52:48.456Z,21.00
2022-11-22T00:53:51.069Z,21.00
2022-11-22T00:54:55.199Z,21.00
2022-11-22T00:55:57.781Z,20.90
2022-11-22T00:57:00.294Z,21.00
2022-11-22T00:58:03.299Z,20.90
2022-11-22T00:59:08.135Z,21.00
2022-11-22T01:00:16.049Z,21.00
2022-11-22T01:01:21.585Z,21.00
2022-11-22T01:02:26.138Z,20.90
2022-11-22T01:03:28.656Z,21.00
2022-11-22T01:04:31.089Z,21.00
2022-11-22T01:05:35.535Z,21.00
2022-11-22T01:06:38.129Z,20.90
2022-11-22T01:07:40.645Z,21.00
2022-11-22T01:08:43.333Z,21.00
2022-11-22T01:09:48.243Z,20.90
2022-11-22T01:10:59.533Z,21.00
2022-11-22T01:12:01.895Z,20.90
2022-11-22T01:13:05.341Z,21.00
2022-11-22T01:14:10.521Z,20.90
2022-11-22T01:15:13.096Z,20.90
2022-11-22T01:16:15.961Z,20.90
2022-11-22T01:17:18.445Z,21.00
2022-11-22T01:18:21.353Z,21.00
2022-11-22T01:19:23.742Z,20.90
2022-11-22T01:20:26.180Z,21.00
2022-11-22T01:21:28.652Z,21.00
2022-11-22T01:22:31.199Z,20.90
2022-11-22T01:23:37.364Z,20.90
2022-11-22T01:24:41.637Z,20.90
2022-11-22T01:25:44.819Z,21.00
2022-11-22T01:26:49.850Z,21.10
2022-11-22T01:27:54.308Z,21.00
2022-11-22T01:28:57.271Z,20.90
2022-11-22T01:30:00.401Z,21.00
2022-11-22T01:31:02.890Z,21.00
2022-11-22T01:32:05.879Z,20.90
2022-11-22T01:33:08.787Z,21.00
2022-11-22T01:34:11.319Z,21.00
2022-11-22T01:35:13.934Z,20.90
2022-11-22T01:36:19.029Z,21.00
2022-11-22T01:37:21.643Z,20.90
2022-11-22T01:38:24.288Z,20.90
2022-11-22T01:39:27.702Z,21.00
2022-11-22T01:40:30.463Z,21.00
2022-11-22T01:41:33.006Z,20.90
2022-11-22T01:42:49.097Z,21.00
2022-11-22T01:43:51.518Z,21.00
2022-11-22T01:44:54.064Z,21.00
2022-11-22T01:45:58.286Z,21.00
2022-11-22T01:47:09.336Z,21.00
2022-11-22T01:48:11.803Z,20.90
2022-11-22T01:49:32.194Z,20.90
2022-11-22T01:50:38.117Z,20.90
2022-11-22T01:51:44.086Z,21.00
2022-11-22T01:52:46.755Z,21.00
2022-11-22T01:53:54.769Z,20.90
2022-11-22T01:55:06.916Z,20.90
2022-11-22T01:56:16.848Z,21.00
2022-11-22T01:57:24.536Z,20.90
2022-11-22T01:58:31.904Z,20.90
2022-11-22T01:59:38.622Z,20.90
2022-11-22T02:00:42.349Z,21.00
2022-11-22T02:01:45.002Z,21.00
2022-11-22T02:02:53.605Z,21.00
2022-11-22T02:03:58.547Z,21.00
2022-11-22T02:05:07.082Z,20.90
2022-11-22T02:06:09.909Z,20.90
2022-11-22T02:07:29.386Z,21.00
2022-11-22T02:08:50.484Z,20.90
2022-11-22T02:09:55.899Z,21.00
2022-11-22T02:11:01.507Z,21.00
2022-11-22T02:12:10.187Z,21.00
2022-11-22T02:13:14.501Z,20.90
2022-11-22T02:14:20.383Z,20.90
2022-11-22T02:15:23.998Z,20.90
2022-11-22T02:16:29.443Z,21.00
2022-11-22T02:17:31.798Z,20.90
2022-11-22T02:18:36.110Z,20.90
2022-11-22T02:19:49.991Z,21.00
2022-11-22T02:20:57.397Z,20.90
2022-11-22T02:22:07.698Z,20.90
2022-11-22T02:23:45.706Z,21.00
2022-11-22T02:24:59.980Z,20.90
2022-11-22T02:26:03.934Z,20.90
2022-11-22T02:27:06.547Z,21.00
2022-11-22T02:28:10.339Z,20.90
2022-11-22T02:29:16.308Z,21.00
2022-11-22T02:30:19.265Z,21.00
2022-11-22T02:31:39.314Z,21.00
2022-11-22T02:32:41.999Z,20.90
2022-11-22T02:33:44.405Z,20.90
2022-11-22T02:34:51.634Z,20.90
2022-11-22T02:35:54.424Z,20.90
2022-11-22T02:36:56.939Z,21.00
2022-11-22T02:38:03.044Z,21.00
2022-11-22T02:39:12.202Z,21.00
2022-11-22T02:40:17.181Z,20.90
2022-11-22T02:41:19.911Z,21.00
2022-11-22T02:42:25.974Z,20.90
2022-11-22T02:43:39.941Z,21.00
2022-11-22T02:44:42.557Z,21.00
2022-11-22T02:45:50.665Z,20.90
2022-11-22T02:46:54.545Z,20.90
2022-11-22T02:48:10.865Z,21.00
2022-11-22T02:49:16.203Z,21.00
2022-11-22T02:50:18.706Z,21.00
2022-11-22T02:51:21.719Z,21.00
2022-11-22T02:52:24.314Z,20.90
2022-11-22T02:53:26.763Z,20.90
2022-11-22T02:54:29.275Z,20.90
2022-11-22T02:55:34.591Z,20.90
2022-11-22T02:56:37.075Z,21.00
2022-11-22T02:57:39.552Z,20.90
2022-11-22T02:58:42.979Z,20.90
2022-11-22T02:59:48.126Z,20.90
2022-11-22T03:00:56.453Z,20.90
2022-11-22T03:02:03.220Z,21.00
2022-11-22T03:03:11.919Z,20.90
2022-11-22T03:04:24.807Z,20.90
2022-11-22T03:05:28.216Z,21.00
2022-11-22T03:06:30.701Z,20.90
2022-11-22T03:07:33.315Z,21.00
2022-11-22T03:08:38.883Z,20.90
2022-11-22T03:09:41.364Z,20.90
2022-11-22T03:10:43.905Z,20.90
2022-11-22T03:11:47.454Z,20.90
2022-11-22T03:12:49.890Z,20.90
2022-11-22T03:13:54.587Z,20.90
2022-11-22T03:14:57.026Z,21.00
2022-11-22T03:15:59.768Z,21.00
2022-11-22T03:17:02.259Z,20.90
2022-11-22T03:18:05.511Z,20.90
2022-11-22T03:19:08.255Z,21.00
2022-11-22T03:20:16.536Z,20.90
2022-11-22T03:21:19.677Z,21.00
2022-11-22T03:22:22.101Z,20.90
2022-11-22T03:23:28.955Z,21.00
2022-11-22T03:24:31.403Z,20.90
2022-11-22T03:25:39.418Z,20.90
2022-11-22T03:26:45.822Z,20.90
2022-11-22T03:27:48.522Z,21.00
2022-11-22T03:28:53.544Z,20.90
2022-11-22T03:29:56.068Z,20.90
2022-11-22T03:30:58.568Z,21.00
2022-11-22T03:32:04.065Z,20.90
2022-11-22T03:33:06.583Z,20.90
2022-11-22T03:34:11.306Z,21.00
2022-11-22T03:35:14.124Z,20.90
2022-11-22T03:36:16.818Z,20.90
2022-11-22T03:37:22.399Z,21.00
2022-11-22T03:38:24.898Z,20.90
2022-11-22T03:39:27.524Z,20.90
2022-11-22T03:40:30.530Z,20.90
2022-11-22T03:41:35.193Z,20.90
2022-11-22T03:42:37.669Z,20.90
2022-11-22T03:43:42.587Z,21.00
2022-11-22T03:44:48.130Z,21.00
2022-11-22T03:45:56.419Z,21.00
2022-11-22T03:46:58.902Z,20.90
2022-11-22T03:48:04.040Z,20.90
2022-11-22T03:49:06.524Z,20.90
2022-11-22T03:50:09.437Z,20.90
2022-11-22T03:51:12.039Z,20.90
2022-11-22T03:52:16.916Z,20.90
2022-11-22T03:53:19.526Z,20.90
2022-11-22T03:54:21.919Z,20.90
2022-11-22T03:55:24.406Z,20.90
2022-11-22T03:56:29.108Z,20.90
2022-11-22T03:57:31.570Z,20.80
2022-11-22T03:58:34.164Z,21.00
2022-11-22T03:59:39.303Z,20.90
2022-11-22T04:00:41.719Z,20.90
2022-11-22T04:01:44.323Z,21.00
2022-11-22T04:02:48.953Z,20.90
2022-11-22T04:03:52.387Z,20.90
2022-11-22T04:04:54.870Z,21.00
2022-11-22T04:06:00.344Z,20.90
2022-11-22T04:07:02.853Z,20.90
2022-11-22T04:08:07.989Z,21.00
2022-11-22T04:09:14.269Z,20.90
2022-11-22T04:10:22.093Z,20.90
2022-11-22T04:11:25.162Z,20.90
2022-11-22T04:12:30.861Z,20.90
2022-11-22T04:13:54.273Z,20.90
2022-11-22T04:15:09.296Z,21.00
2022-11-22T04:16:11.852Z,20.90
2022-11-22T04:17:14.606Z,20.90
2022-11-22T04:18:17.025Z,20.90
2022-11-22T04:19:19.423Z,20.90
2022-11-22T04:20:43.654Z,21.00
2022-11-22T04:21:49.246Z,20.90
2022-11-22T04:23:06.785Z,20.90
2022-11-22T04:24:29.630Z,21.00
2022-11-22T04:25:34.237Z,20.90
2022-11-22T04:26:37.999Z,20.90
2022-11-22T04:27:55.579Z,21.00
2022-11-22T04:29:11.003Z,21.00
2022-11-22T04:30:20.261Z,21.00
2022-11-22T04:31:42.648Z,20.90
2022-11-22T04:32:47.899Z,20.90
2022-11-22T04:33:50.947Z,21.00
2022-11-22T04:34:53.407Z,20.90
2022-11-22T04:35:56.281Z,20.90
2022-11-22T04:36:59.182Z,21.00
2022-11-22T04:38:05.730Z,20.90
2022-11-22T04:39:08.254Z,20.90
2022-11-22T04:40:11.137Z,20.90
2022-11-22T04:41:13.507Z,20.90
2022-11-22T04:42:34.426Z,20.90
2022-11-22T04:43:57.268Z,21.00
2022-11-22T04:45:00.532Z,20.90
2022-11-22T04:46:02.919Z,20.90
2022-11-22T04:47:05.431Z,21.00
2022-11-22T04:48:09.875Z,20.90
2022-11-22T04:49:14.593Z,20.90
2022-11-22T04:50:35.502Z,20.90
2022-11-22T04:51:56.637Z,20.90
2022-11-22T04:52:59.459Z,20.90
2022-11-22T04:54:01.900Z,20.90
2022-11-22T04:55:07.524Z,20.90
2022-11-22T04:56:10.397Z,20.90
2022-11-22T04:57:12.866Z,20.90
2022-11-22T04:58:18.678Z,20.90
2022-11-22T04:59:21.061Z,21.00
2022-11-22T05:00:27.593Z,20.90
2022-11-22T05:01:32.052Z,20.90
2022-11-22T05:02:36.407Z,20.90
2022-11-22T05:03:47.810Z,20.90
2022-11-22T05:04:50.859Z,20.90
2022-11-22T05:05:56.246Z,20.90
2022-11-22T05:06:58.682Z,21.00
2022-11-22T05:08:01.195Z,20.90
2022-11-22T05:09:04.420Z,21.00
2022-11-22T05:10:07.311Z,20.90
2022-11-22T05:11:10.074Z,20.90
2022-11-22T05:12:12.509Z,20.90
2022-11-22T05:13:15.170Z,20.90
2022-11-22T05:14:17.639Z,20.90
2022-11-22T05:15:20.079Z,20.90
2022-11-22T05:16:25.132Z,20.90
2022-11-22T05:17:27.623Z,20.90
2022-11-22T05:18:30.523Z,21.00
2022-11-22T05:19:35.189Z,21.00
2022-11-22T05:20:37.699Z,20.90
2022-11-22T05:21:40.102Z,20.90
2022-11-22T05:23:00.923Z,20.90
2022-11-22T05:24:04.018Z,21.00
2022-11-22T05:25:06.533Z,20.90
2022-11-22T05:26:12.746Z,20.90
2022-11-22T05:27:15.113Z,20.90
2022-11-22T05:28:17.565Z,20.90
2022-11-22T05:29:20.100Z,20.90
2022-11-22T05:30:22.690Z,20.90
2022-11-22T05:31:27.647Z,21.00
2022-11-22T05:32:31.569Z,20.90
2022-11-22T05:33:41.344Z,20.90
2022-11-22T05:34:43.818Z,21.00
2022-11-22T05:35:46.335Z,20.90
2022-11-22T05:36:49.386Z,20.90
2022-11-22T05:37:59.555Z,20.90
2022-11-22T05:39:07.156Z,20.90
2022-11-22T05:40:13.590Z,20.90
2022-11-22T05:41:17.487Z,20.90
2022-11-22T05:42:19.912Z,21.00
2022-11-22T05:43:22.473Z,20.90
2022-11-22T05:44:24.903Z,20.90
2022-11-22T05:45:27.648Z,20.90
2022-11-22T05:46:31.267Z,20.90
2022-11-22T05:47:35.704Z,21.00
2022-11-22T05:48:43.470Z,20.90
2022-11-22T05:49:49.010Z,20.90
2022-11-22T05:50:51.479Z,21.00
2022-11-22T05:51:54.178Z,20.90
2022-11-22T05:53:01.373Z,20.90
2022-11-22T05:54:06.307Z,20.90
2022-11-22T05:55:08.861Z,20.90
2022-11-22T05:56:19.351Z,20.90
2022-11-22T05:57:24.833Z,20.90
2022-11-22T05:58:27.654Z,20.90
2022-11-22T05:59:30.140Z,20.90
2022-11-22T06:00:32.792Z,20.90
2022-11-22T06:01:35.221Z,20.90
2022-11-22T06:02:40.550Z,20.90
2022-11-22T06:03:44.213Z,20.90
2022-11-22T06:04:46.892Z,20.90
2022-11-22T06:05:52.792Z,20.90
2022-11-22T06:06:55.261Z,21.00
2022-11-22T06:08:02.724Z,21.00
2022-11-22T06:09:11.175Z,20.90
2022-11-22T06:10:19.426Z,21.00
2022-11-22T06:11:24.563Z,20.90
2022-11-22T06:12:27.613Z,20.90
2022-11-22T06:13:41.589Z,20.90
2022-11-22T06:14:45.986Z,21.00
2022-11-22T06:15:51.165Z,21.00
2022-11-22T06:16:53.692Z,20.90
2022-11-22T06:17:56.082Z,20.90
2022-11-22T06:18:58.629Z,20.90
2022-11-22T06:20:05.845Z,20.90
2022-11-22T06:21:13.172Z,21.00
2022-11-22T06:22:15.683Z,20.90
2022-11-22T06:23:18.125Z,21.00
2022-11-22T06:24:20.594Z,20.90
2022-11-22T06:25:23.093Z,21.00
2022-11-22T06:26:26.395Z,20.90
2022-11-22T06:27:32.757Z,20.90
2022-11-22T06:28:38.167Z,21.00
2022-11-22T06:29:42.984Z,21.00
2022-11-22T06:30:45.391Z,20.90
2022-11-22T06:31:47.865Z,20.90
2022-11-22T06:32:50.953Z,20.90
2022-11-22T06:33:54.823Z,21.00
2022-11-22T06:35:03.379Z,20.90
2022-11-22T06:36:11.695Z,21.00
2022-11-22T06:37:17.206Z,20.90
2022-11-22T06:38:23.460Z,21.00
2022-11-22T06:39:25.914Z,21.00
2022-11-22T06:40:31.991Z,20.90
2022-11-22T06:41:36.775Z,21.00
2022-11-22T06:42:39.263Z,21.00
2022-11-22T06:43:49.537Z,20.90
2022-11-22T06:44:54.345Z,20.90
2022-11-22T06:45:58.215Z,20.90
2022-11-22T06:47:00.838Z,20.90
2022-11-22T06:48:04.435Z,21.00
2022-11-22T06:49:10.374Z,20.90
2022-11-22T06:50:16.210Z,20.90
2022-11-22T06:51:25.879Z,21.00
2022-11-22T06:52:28.243Z,20.90
2022-11-22T06:53:46.779Z,21.00
2022-11-22T06:54:50.475Z,21.00
2022-11-22T06:56:01.472Z,20.90
2022-11-22T06:57:09.131Z,21.00
2022-11-22T06:58:11.702Z,20.90
2022-11-22T06:59:14.352Z,20.90
2022-11-22T07:00:19.845Z,20.90
2022-11-22T07:01:28.214Z,20.90
2022-11-22T07:02:30.768Z,20.90
2022-11-22T07:03:35.603Z,21.00
2022-11-22T07:05:02.246Z,20.90
2022-11-22T07:06:03.997Z,20.90
2022-11-22T07:07:09.125Z,20.90
2022-11-22T07:08:14.356Z,21.00
2022-11-22T07:09:16.890Z,21.00
2022-11-22T07:10:19.284Z,21.00
2022-11-22T07:11:30.865Z,21.00
2022-11-22T07:12:35.942Z,20.90
2022-11-22T07:13:41.503Z,21.00
2022-11-22T07:14:54.797Z,20.90
2022-11-22T07:16:02.005Z,20.90
2022-11-22T07:17:04.693Z,20.90
2022-11-22T07:18:07.172Z,21.00
2022-11-22T07:19:17.814Z,21.00
2022-11-22T07:20:20.260Z,20.90
2022-11-22T07:21:25.430Z,21.00
2022-11-22T07:22:30.499Z,20.90
2022-11-22T07:23:33.009Z,21.00
2022-11-22T07:24:35.507Z,20.90
2022-11-22T07:25:46.841Z,20.90
2022-11-22T07:26:51.803Z,20.90
2022-11-22T07:27:54.367Z,21.00
2022-11-22T07:29:02.535Z,20.90
2022-11-22T07:30:05.479Z,20.90
2022-11-22T07:31:18.144Z,20.90
2022-11-22T07:32:20.964Z,20.90
2022-11-22T07:33:23.403Z,20.90
2022-11-22T07:34:31.165Z,20.90
2022-11-22T07:35:36.400Z,20.90
2022-11-22T07:36:40.360Z,21.00
2022-11-22T07:37:42.821Z,21.00
2022-11-22T07:38:45.803Z,21.00
2022-11-22T07:39:49.467Z,20.90
2022-11-22T07:40:52.591Z,21.00
2022-11-22T07:41:56.390Z,20.90
2022-11-22T07:42:58.942Z,21.00
2022-11-22T07:44:01.507Z,21.00
2022-11-22T07:45:04.208Z,21.00
2022-11-22T07:46:16.778Z,20.90
2022-11-22T07:47:22.909Z,20.90
2022-11-22T07:48:27.806Z,21.00
2022-11-22T07:49:35.695Z,21.00
2022-11-22T07:50:40.534Z,21.00
2022-11-22T07:51:48.039Z,20.90
2022-11-22T07:53:03.770Z,20.90
2022-11-22T07:54:11.559Z,21.00
2022-11-22T07:55:15.958Z,20.90
2022-11-22T07:56:21.579Z,20.90
2022-11-22T07:57:31.402Z,21.00
2022-11-22T07:58:35.997Z,20.90
2022-11-22T07:59:41.299Z,20.90
2022-11-22T08:00:45.951Z,21.00
2022-11-22T08:01:50.738Z,20.90
2022-11-22T08:02:57.160Z,21.00
2022-11-22T08:04:05.098Z,20.90
2022-11-22T08:05:08.314Z,21.00
2022-11-22T08:06:12.346Z,20.90
2022-11-22T08:07:17.400Z,21.00
2022-11-22T08:08:20.603Z,20.90
2022-11-22T08:09:25.666Z,20.90
2022-11-22T08:10:30.940Z,21.00
2022-11-22T08:11:37.121Z,20.90
2022-11-22T08:12:42.539Z,20.90
2022-11-22T08:13:45.139Z,20.90
2022-11-22T08:14:51.552Z,20.90
2022-11-22T08:16:02.166Z,20.90
2022-11-22T08:17:07.477Z,20.90
2022-11-22T08:18:10.392Z,21.00
2022-11-22T08:19:21.825Z,20.90
2022-11-22T08:20:29.932Z,20.90
2022-11-22T08:21:32.288Z,21.00
2022-11-22T08:22:40.788Z,20.90
2022-11-22T08:23:51.767Z,20.90
2022-11-22T08:24:57.584Z,20.90
2022-11-22T08:26:01.713Z,20.90
2022-11-22T08:27:08.923Z,21.00
2022-11-22T08:28:11.444Z,20.90
2022-11-22T08:29:19.359Z,20.90
2022-11-22T08:30:22.131Z,20.90
2022-11-22T08:31:24.550Z,20.90
2022-11-22T08:32:32.365Z,20.90
2022-11-22T08:33:35.143Z,21.00
2022-11-22T08:34:38.705Z,21.00
2022-11-22T08:35:44.375Z,20.90
2022-11-22T08:36:47.693Z,20.90
2022-11-22T08:37:51.273Z,20.90
2022-11-22T08:38:54.483Z,20.90
2022-11-22T08:39:57.648Z,20.90
2022-11-22T08:41:00.015Z,21.00
2022-11-22T08:42:02.492Z,20.90
2022-11-22T08:43:05.005Z,20.90
2022-11-22T08:44:07.611Z,20.90
2022-11-22T08:45:17.298Z,20.90
2022-11-22T08:46:20.466Z,20.90
2022-11-22T08:47:27.535Z,20.90
2022-11-22T08:48:34.958Z,20.90
2022-11-22T08:49:37.491Z,20.90
2022-11-22T08:50:40.720Z,20.90
2022-11-22T08:51:45.019Z,21.00
2022-11-22T08:52:56.568Z,20.90
2022-11-22T08:54:01.425Z,20.90
2022-11-22T08:55:04.087Z,20.90
2022-11-22T08:56:11.796Z,20.90
2022-11-22T08:57:14.257Z,20.90
2022-11-22T08:58:19.465Z,20.90
2022-11-22T08:59:27.817Z,20.90
2022-11-22T09:00:33.730Z,20.90
2022-11-22T09:01:36.347Z,20.90
2022-11-22T09:02:42.566Z,20.90
2022-11-22T09:03:45.773Z,20.90
2022-11-22T09:04:48.569Z,21.00
2022-11-22T09:08:47.264Z,20.90
2022-11-22T09:09:51.818Z,21.00
2022-11-22T09:10:54.378Z,21.00
2022-11-22T09:11:57.517Z,21.00
2022-11-22T09:12:59.991Z,20.90
2022-11-22T09:14:05.311Z,20.90
2022-11-22T09:15:18.579Z,20.90
2022-11-22T09:16:21.108Z,20.90
2022-11-22T09:17:24.778Z,20.90
2022-11-22T09:18:29.074Z,20.90
2022-11-22T09:19:34.304Z,20.90
2022-11-22T09:20:39.806Z,20.90
2022-11-22T09:21:42.316Z,20.90
2022-11-22T09:22:46.056Z,20.90
2022-11-22T09:23:50.459Z,20.90
2022-11-22T09:25:00.146Z,20.90
2022-11-22T09:26:11.150Z,21.00
2022-11-22T09:27:13.678Z,20.90
2022-11-22T09:28:19.070Z,20.90
2022-11-22T09:29:30.575Z,20.90
2022-11-22T09:30:33.156Z,20.90
2022-11-22T09:31:38.712Z,20.90
2022-11-22T09:32:44.796Z,21.00
2022-11-22T09:33:49.543Z,20.90
2022-11-22T09:34:53.212Z,21.00
2022-11-22T09:36:02.899Z,21.00
2022-11-22T09:37:09.389Z,21.00
2022-11-22T09:38:11.876Z,20.90
2022-11-22T09:39:17.057Z,20.90
2022-11-22T09:40:22.380Z,21.00
2022-11-22T09:41:51.455Z,20.90
2022-11-22T09:43:35.614Z,20.90
2022-11-22T09:44:59.286Z,21.00
2022-11-22T09:46:20.118Z,20.90
2022-11-22T09:48:04.223Z,20.90
2022-11-22T09:49:29.115Z,20.90
2022-11-22T09:50:56.407Z,20.90
2022-11-22T09:52:20.615Z,20.90
2022-11-22T09:53:34.964Z,20.90
2022-11-22T09:54:57.494Z,20.90
2022-11-22T09:56:03.429Z,20.90
2022-11-22T09:57:14.206Z,20.90
2022-11-22T09:58:37.347Z,20.90
2022-11-22T09:59:47.017Z,20.90
2022-11-22T10:00:52.510Z,20.90
2022-11-22T10:02:18.300Z,20.90
2022-11-22T10:03:27.807Z,20.90
2022-11-22T10:04:42.257Z,20.90
2022-11-22T10:05:59.027Z,20.90
2022-11-22T10:07:29.488Z,20.90
2022-11-22T10:08:46.219Z,20.90
2022-11-22T10:10:06.581Z,21.00
2022-11-22T10:11:44.738Z,20.90
2022-11-22T10:13:05.333Z,20.90
2022-11-22T10:14:26.007Z,20.90
2022-11-22T10:15:38.587Z,20.90
2022-11-22T10:16:57.005Z,20.90
2022-11-22T10:18:26.889Z,20.90
2022-11-22T10:19:47.600Z,20.90
2022-11-22T10:21:01.407Z,20.90
2022-11-22T10:22:13.373Z,20.90
2022-11-22T10:23:25.312Z,20.90
2022-11-22T10:24:33.527Z,20.90
2022-11-22T10:25:47.809Z,20.90
2022-11-22T10:26:51.407Z,20.90
2022-11-22T10:28:11.524Z,20.90
2022-11-22T10:29:42.465Z,20.90
2022-11-22T10:31:22.954Z,20.90
2022-11-22T10:32:39.366Z,20.90
2022-11-22T10:34:19.965Z,20.90
2022-11-22T10:35:41.422Z,20.90
2022-11-22T10:37:02.606Z,20.90
2022-11-22T10:38:48.116Z,20.90
2022-11-22T10:40:11.284Z,20.90
2022-11-22T10:41:28.463Z,20.90
2022-11-22T10:42:55.137Z,21.00
2022-11-22T10:44:16.104Z,20.90
2022-11-22T10:45:36.504Z,20.90
2022-11-22T10:47:16.729Z,20.90
2022-11-22T10:48:34.930Z,20.90
2022-11-22T10:50:14.379Z,20.90
2022-11-22T10:51:30.520Z,20.90
2022-11-22T10:52:35.535Z,20.90
2022-11-22T10:54:22.579Z,20.90
2022-11-22T10:55:49.666Z,20.90
2022-11-22T10:57:09.778Z,20.90
2022-11-22T10:58:37.424Z,20.90
2022-11-22T11:00:08.522Z,21.00
2022-11-22T11:01:27.071Z,20.90
2022-11-22T11:03:06.523Z,20.90
2022-11-22T11:04:13.372Z,20.90
2022-11-22T11:05:20.909Z,20.90
2022-11-22T11:06:57.109Z,20.90
2022-11-22T11:08:15.288Z,20.90
2022-11-22T11:10:58.813Z,20.90
2022-11-22T11:12:07.104Z,21.00
2022-11-22T11:13:28.368Z,20.90
2022-11-22T11:14:44.102Z,20.90
2022-11-22T11:15:55.942Z,20.90
2022-11-22T11:17:02.415Z,20.90
2022-11-22T11:18:17.555Z,20.90
2022-11-22T11:19:25.594Z,20.90
2022-11-22T11:20:34.438Z,20.90
2022-11-22T11:21:37.491Z,20.90
2022-11-22T11:24:02.803Z,20.90
2022-11-22T11:25:29.873Z,20.90
2022-11-22T11:26:36.700Z,20.90
2022-11-22T11:27:44.884Z,20.90
2022-11-22T11:28:47.806Z,20.90
2022-11-22T11:30:03.864Z,20.90
2022-11-22T11:31:11.391Z,20.90
2022-11-22T11:32:17.262Z,20.90
2022-11-22T11:33:26.378Z,20.90
2022-11-22T11:34:34.685Z,21.00
2022-11-22T11:35:41.021Z,20.90
2022-11-22T11:36:47.214Z,20.90
2022-11-22T11:37:55.966Z,20.90
2022-11-22T11:38:58.593Z,20.90
2022-11-22T11:40:01.202Z,20.90
2022-11-22T11:41:25.219Z,20.90
2022-11-22T11:42:35.568Z,20.90
2022-11-22T11:43:44.423Z,20.90
2022-11-22T11:44:47.289Z,20.90
2022-11-22T11:45:50.575Z,20.90
2022-11-22T11:46:55.977Z,21.00
2022-11-22T11:47:59.667Z,20.90
2022-11-22T11:49:20.902Z,20.90
2022-11-22T11:50:28.494Z,20.90
2022-11-22T11:51:43.797Z,20.90
2022-11-22T11:52:57.234Z,20.90
2022-11-22T11:54:18.547Z,20.90
2022-11-22T11:55:22.508Z,21.00
2022-11-22T11:56:51.735Z,20.90
2022-11-22T11:57:56.602Z,20.90
2022-11-22T11:59:03.455Z,21.00
2022-11-22T12:00:21.351Z,20.90
2022-11-22T12:01:25.582Z,21.00
2022-11-22T12:02:43.005Z,20.90
2022-11-22T12:03:55.701Z,20.90
2022-11-22T12:05:21.638Z,20.90
2022-11-22T12:06:31.550Z,21.00
2022-11-22T12:07:37.744Z,20.90
2022-11-22T12:08:41.830Z,20.90
2022-11-22T12:09:46.758Z,20.90
2022-11-22T12:11:09.115Z,20.90
2022-11-22T12:12:32.054Z,21.00
2022-11-22T12:14:12.339Z,21.00
2022-11-22T12:15:20.298Z,20.90
2022-11-22T12:16:29.289Z,21.00
2022-11-22T12:17:52.729Z,21.00
2022-11-22T12:19:24.380Z,21.00
2022-11-22T12:20:56.645Z,21.00
2022-11-22T12:22:48.984Z,20.90
2022-11-22T12:24:26.511Z,21.00
2022-11-22T12:25:36.857Z,21.00
2022-11-22T12:26:39.855Z,21.00
2022-11-22T12:27:46.663Z,21.00
2022-11-22T12:28:52.521Z,21.00
2022-11-22T12:29:58.923Z,21.00
2022-11-22T12:31:35.602Z,21.00
2022-11-22T12:33:00.886Z,21.00
2022-11-22T12:34:07.786Z,21.00
2022-11-22T12:35:23.719Z,21.00
2022-11-22T12:36:49.524Z,21.00
2022-11-22T12:38:24.125Z,21.10
2022-11-22T12:39:29.106Z,21.10
2022-11-22T12:40:43.531Z,21.10
2022-11-22T12:41:53.691Z,21.10
2022-11-22T12:43:14.918Z,21.10
2022-11-22T12:44:20.930Z,21.10
2022-11-22T12:45:40.583Z,21.10
2022-11-22T12:46:54.682Z,21.10
2022-11-22T12:48:33.201Z,21.10
2022-11-22T12:49:55.381Z,21.10
2022-11-22T12:51:06.196Z,21.10
2022-11-22T12:52:37.348Z,21.20
2022-11-22T12:55:35.472Z,21.20
2022-11-22T12:57:07.489Z,21.20
2022-11-22T12:58:27.615Z,21.20
2022-11-22T12:59:37.562Z,21.20
2022-11-22T13:00:47.904Z,21.20
2022-11-22T13:02:10.002Z,21.30
2022-11-22T13:03:23.273Z,21.30
2022-11-22T13:05:04.447Z,21.30
2022-11-22T13:06:10.649Z,21.30
2022-11-22T13:07:37.311Z,21.30
2022-11-22T13:08:53.985Z,21.30
2022-11-22T13:10:25.292Z,21.30
2022-11-22T13:11:48.030Z,21.30
2022-11-22T13:12:57.289Z,21.40
2022-11-22T13:14:15.189Z,21.40
2022-11-22T13:15:38.422Z,21.40
2022-11-22T13:16:41.155Z,21.50
2022-11-22T13:17:43.982Z,21.40
2022-11-22T13:19:07.033Z,21.50
2022-11-22T13:20:17.127Z,21.50
2022-11-22T13:22:00.668Z,21.50
2022-11-22T13:23:05.848Z,21.50
2022-11-22T13:24:19.528Z,21.60
2022-11-22T13:25:43.191Z,21.60
2022-11-22T13:26:55.278Z,21.60
2022-11-22T13:28:00.814Z,21.60
2022-11-22T13:29:17.878Z,21.60
2022-11-22T13:30:26.534Z,21.70
2022-11-22T13:31:33.492Z,21.70
2022-11-22T13:32:43.076Z,21.60
2022-11-22T13:34:00.200Z,21.70
2022-11-22T13:35:11.524Z,21.70
2022-11-22T13:36:35.488Z,21.70
2022-11-22T13:37:47.527Z,21.70
2022-11-22T13:38:52.840Z,21.70
2022-11-22T13:40:15.598Z,21.70
2022-11-22T13:41:59.189Z,21.80
2022-11-22T13:43:22.616Z,21.80
2022-11-22T13:44:40.403Z,21.80
2022-11-22T13:45:57.134Z,21.80
2022-11-22T13:47:14.831Z,21.80
2022-11-22T13:48:38.749Z,21.80
2022-11-22T13:49:49.102Z,21.90
2022-11-22T13:50:52.435Z,21.80
2022-11-22T13:51:57.004Z,21.90
2022-11-22T13:53:18.640Z,21.90
2022-11-22T13:54:40.241Z,21.90
2022-11-22T13:55:42.902Z,21.90
2022-11-22T13:56:47.724Z,22.00
2022-11-22T13:57:51.087Z,22.00
2022-11-22T13:59:08.713Z,22.00
2022-11-22T14:00:14.353Z,22.00
2022-11-22T14:01:34.768Z,22.00
2022-11-22T14:02:47.619Z,22.00
2022-11-22T14:03:53.190Z,22.00
2022-11-22T14:04:59.734Z,22.00
2022-11-22T14:06:23.263Z,22.00
2022-11-22T14:07:37.341Z,22.00
2022-11-22T14:08:44.007Z,22.00
2022-11-22T14:10:25.892Z,22.10
2022-11-22T14:11:52.575Z,22.10
2022-11-22T14:13:27.031Z,22.10
2022-11-22T14:14:55.887Z,22.10
2022-11-22T14:15:59.636Z,22.10
2022-11-22T14:17:25.112Z,22.10
2022-11-22T14:18:37.618Z,22.10
2022-11-22T14:19:50.971Z,22.10
2022-11-22T14:21:13.642Z,22.10
2022-11-22T14:22:21.935Z,22.10
2022-11-22T14:23:41.288Z,22.10
2022-11-22T14:25:20.978Z,22.10
2022-11-22T14:26:36.687Z,22.10
2022-11-22T14:28:01.487Z,22.10
2022-11-22T14:29:42.638Z,22.10
2022-11-22T14:30:51.806Z,22.10
2022-11-22T14:32:19.018Z,22.10
2022-11-22T14:33:29.980Z,22.10
2022-11-22T14:34:37.726Z,22.10
2022-11-22T14:36:06.289Z,22.10
2022-11-22T14:37:14.452Z,22.10
2022-11-22T14:38:28.535Z,22.10
2022-11-22T14:39:56.026Z,22.10
2022-11-22T14:41:28.593Z,22.10
2022-11-22T14:42:39.938Z,22.10
2022-11-22T14:43:44.515Z,22.10
2022-11-22T14:44:54.157Z,22.00
2022-11-22T14:46:01.920Z,22.00
2022-11-22T14:47:10.563Z,22.00
2022-11-22T14:48:21.495Z,22.00
2022-11-22T14:49:34.543Z,22.00
2022-11-22T14:50:40.368Z,22.00
2022-11-22T14:51:42.934Z,22.00
2022-11-22T14:52:48.069Z,22.00
2022-11-22T14:54:06.189Z,22.00
2022-11-22T14:55:25.850Z,22.00
2022-11-22T14:56:33.994Z,22.00